Time;durP1;ratioP1;P1;durP2;ratioP2;P2;SDS_P1;SDS_P2;PMS_P1;PMS_P2;Temp;Humidity;BMP_temperature;BMP_pressure;BME280_temperature;BME280_humidity;BME280_pressure;Samples;Min_cycle;Max_cycle;Signal;HPM_P1;HPM_P2
2023/07/04 00:01:09;;;;;;;;;;;15.00;99.90;;;;;;5024868;28;20293;-43
2023/07/04 00:03:36;;;;;;;;;;;15.10;99.90;;;;;;5032399;28;19925;-43
2023/07/04 00:06:04;;;;;;;;;;;15.00;99.90;;;;;;5032452;28;20277;-43
2023/07/04 00:08:33;;;;;;;;;;;15.00;99.90;;;;;;5032011;28;19926;-43
2023/07/04 00:11:01;;;;;;;;;;;15.00;99.90;;;;;;5032359;28;19962;-43
2023/07/04 00:13:27;;;;;;;;;;;15.00;99.90;;;;;;5013061;28;19929;-43
2023/07/04 00:15:54;;;;;;;;;;;15.00;99.90;;;;;;5032977;28;19979;-43
2023/07/04 00:18:23;;;;;;;;;;;15.00;99.90;;;;;;5031970;28;19932;-43
2023/07/04 00:20:53;;;;;;;;;;;14.90;99.90;;;;;;5032679;28;19925;-42
2023/07/04 00:23:20;;;;;;;;;;;14.90;99.90;;;;;;5031380;28;19925;-42
2023/07/04 00:25:47;;;;;;;;;;;14.90;99.90;;;;;;5032157;28;22624;-43
2023/07/04 00:28:13;;;;;;;;;;;14.80;99.90;;;;;;5032030;28;19980;-43
2023/07/04 00:30:40;;;;;;;;;;;14.90;99.90;;;;;;5013753;28;19979;-43
2023/07/04 00:33:07;;;;;;;;;;;14.90;99.90;;;;;;5032172;28;19978;-42
2023/07/04 00:35:35;;;;;;;;;;;14.80;99.90;;;;;;5024607;28;19925;-43
2023/07/04 00:38:02;;;;;;;;;;;14.80;99.90;;;;;;5013716;28;19929;-43
2023/07/04 00:40:29;;;;;;;;;;;14.80;99.90;;;;;;5014373;28;20361;-44
2023/07/04 00:43:02;;;;;;;;;;;14.80;99.90;;;;;;5031813;28;19978;-42
2023/07/04 00:45:31;;;;;;;;;;;14.80;99.90;;;;;;5014416;28;19948;-43
2023/07/04 00:48:00;;;;;;;;;;;14.70;99.90;;;;;;5030905;28;20015;-43
2023/07/04 00:50:28;;;;;;;;;;;14.70;99.90;;;;;;5013638;28;19925;-42
2023/07/04 00:52:56;;;;;;;;;;;14.70;99.90;;;;;;5031171;28;19925;-42
2023/07/04 00:55:22;;;;;;;;;;;14.60;99.90;;;;;;5014978;28;19977;-42
2023/07/04 00:57:49;;;;;;;;;;;14.60;99.90;;;;;;5013862;28;20286;-42
2023/07/04 01:00:19;;;;;;;;;;;14.50;99.90;;;;;;5013947;28;19925;-42
2023/07/04 01:02:48;;;;;;;;;;;14.50;99.90;;;;;;5030888;28;20458;-41
2023/07/04 01:05:14;;;;;;;;;;;14.50;99.90;;;;;;5012967;28;19926;-43
2023/07/04 01:07:42;;;;;;;;;;;14.50;99.90;;;;;;5012902;28;19925;-43
2023/07/04 01:10:11;;;;;;;;;;;14.50;99.90;;;;;;5030909;28;19925;-43
2023/07/04 01:12:39;;;;;;;;;;;14.50;99.90;;;;;;5012480;28;19976;-43
2023/07/04 01:15:06;;;;;;;;;;;14.50;99.90;;;;;;5013615;28;20296;-43
2023/07/04 01:17:33;;;;;;;;;;;14.50;99.90;;;;;;5024333;28;19933;-44
2023/07/04 01:19:59;;;;;;;;;;;14.50;99.90;;;;;;5013371;28;19925;-43
2023/07/04 01:22:27;;;;;;;;;;;14.40;99.90;;;;;;5030682;28;19925;-43
2023/07/04 01:24:59;;;;;;;;;;;14.40;99.90;;;;;;5024822;28;19979;-43
2023/07/04 01:27:27;;;;;;;;;;;14.40;99.90;;;;;;5029498;28;19929;-44
2023/07/04 01:29:54;;;;;;;;;;;14.40;99.90;;;;;;5018058;28;19940;-44
2023/07/04 01:32:20;;;;;;;;;;;14.40;99.90;;;;;;5026178;28;19925;-43
2023/07/04 01:34:47;;;;;;;;;;;14.40;99.90;;;;;;5035286;28;20005;-43
2023/07/04 01:37:14;;;;;;;;;;;14.40;99.90;;;;;;5034458;28;19936;-43
2023/07/04 01:39:41;;;;;;;;;;;14.40;99.90;;;;;;5017094;28;20404;-43
2023/07/04 01:42:08;;;;;;;;;;;14.40;99.90;;;;;;5016846;28;19940;-43
2023/07/04 01:44:36;;;;;;;;;;;14.40;99.90;;;;;;5017338;28;19925;-42
2023/07/04 01:47:02;;;;;;;;;;;14.40;99.90;;;;;;5031664;28;20396;-43
2023/07/04 01:49:29;;;;;;;;;;;14.40;99.90;;;;;;5031822;28;19933;-43
2023/07/04 01:51:56;;;;;;;;;;;14.40;99.90;;;;;;5034227;28;19995;-43
2023/07/04 01:54:22;;;;;;;;;;;14.30;99.90;;;;;;5042600;28;19985;-43
2023/07/04 01:56:50;;;;;;;;;;;14.30;99.90;;;;;;5024237;28;20381;-44
2023/07/04 01:59:17;;;;;;;;;;;14.30;99.90;;;;;;5006670;28;20012;-43
2023/07/04 02:01:45;;;;;;;;;;;14.30;99.90;;;;;;5033810;28;19932;-44
2023/07/04 02:04:12;;;;;;;;;;;14.20;99.90;;;;;;5033034;28;19937;-42
2023/07/04 02:06:39;;;;;;;;;;;14.20;99.90;;;;;;5034977;28;20438;-44
2023/07/04 02:09:05;;;;;;;;;;;14.20;99.90;;;;;;5033447;28;19948;-43
2023/07/04 02:11:32;;;;;;;;;;;14.20;99.90;;;;;;5017147;28;19925;-43
2023/07/04 02:13:59;;;;;;;;;;;14.10;99.90;;;;;;5034271;28;20305;-43
2023/07/04 02:16:26;;;;;;;;;;;14.10;99.90;;;;;;5034065;28;19972;-43
2023/07/04 02:18:54;;;;;;;;;;;14.10;99.90;;;;;;5034435;28;19925;-43
2023/07/04 02:21:20;;;;;;;;;;;14.00;99.90;;;;;;5028016;28;19930;-43
2023/07/04 02:23:47;;;;;;;;;;;14.00;99.90;;;;;;5027919;28;19932;-43
2023/07/04 02:26:14;;;;;;;;;;;14.00;99.90;;;;;;5034271;28;19979;-42
2023/07/04 02:28:40;;;;;;;;;;;14.00;99.90;;;;;;5033876;28;19925;-43
2023/07/04 02:31:07;;;;;;;;;;;14.00;99.90;;;;;;5033603;28;19925;-42
2023/07/04 02:33:35;;;;;;;;;;;14.00;99.90;;;;;;5020410;28;19930;-42
2023/07/04 02:36:04;;;;;;;;;;;14.00;99.90;;;;;;5044716;28;19925;-43
2023/07/04 02:38:30;;;;;;;;;;;13.90;99.90;;;;;;5015574;28;19931;-43
2023/07/04 02:40:57;;;;;;;;;;;13.90;99.90;;;;;;5016395;28;19971;-44
2023/07/04 02:43:23;;;;;;;;;;;13.90;99.90;;;;;;5016677;28;19929;-43
2023/07/04 02:45:50;;;;;;;;;;;13.90;99.90;;;;;;5012258;28;20018;-44
2023/07/04 02:48:18;;;;;;;;;;;13.80;99.90;;;;;;5033958;28;19924;-43
2023/07/04 02:50:45;;;;;;;;;;;13.80;99.90;;;;;;5016222;28;19932;-43
2023/07/04 02:53:13;;;;;;;;;;;13.80;99.90;;;;;;5033166;28;20360;-43
2023/07/04 02:55:40;;;;;;;;;;;13.70;99.90;;;;;;5015664;28;20310;-43
2023/07/04 02:58:06;;;;;;;;;;;13.80;99.90;;;;;;5015586;28;19983;-43
2023/07/04 03:00:34;;;;;;;;;;;13.80;99.90;;;;;;5032715;28;19983;-43
2023/07/04 03:03:00;;;;;;;;;;;13.70;99.90;;;;;;5033080;28;20431;-43
2023/07/04 03:05:27;;;;;;;;;;;13.70;99.90;;;;;;5016640;28;20283;-43
2023/07/04 03:07:54;;;;;;;;;;;13.80;99.90;;;;;;5034031;28;19925;-44
2023/07/04 03:10:22;;;;;;;;;;;13.80;99.90;;;;;;5012011;28;20011;-43
2023/07/04 03:12:49;;;;;;;;;;;13.80;99.90;;;;;;5033731;28;20360;-43
2023/07/04 03:15:15;;;;;;;;;;;13.80;99.90;;;;;;5032866;28;19932;-43
2023/07/04 03:17:42;;;;;;;;;;;13.80;99.90;;;;;;5028601;28;20403;-44
2023/07/04 03:20:10;;;;;;;;;;;13.80;99.90;;;;;;5032739;28;19972;-43
2023/07/04 03:22:36;;;;;;;;;;;13.80;99.90;;;;;;5032992;28;19929;-42
2023/07/04 03:25:03;;;;;;;;;;;13.80;99.90;;;;;;5025892;28;19984;-43
2023/07/04 03:27:31;;;;;;;;;;;13.80;99.90;;;;;;5033452;28;20286;-43
2023/07/04 03:29:58;;;;;;;;;;;13.80;99.90;;;;;;5032267;28;19980;-43
2023/07/04 03:32:25;;;;;;;;;;;13.80;99.90;;;;;;5027890;28;20109;-43
2023/07/04 03:34:51;;;;;;;;;;;13.80;99.90;;;;;;5016032;28;19987;-43
2023/07/04 03:37:18;;;;;;;;;;;13.80;99.90;;;;;;5016387;28;19925;-43
2023/07/04 03:39:45;;;;;;;;;;;13.70;99.90;;;;;;5014719;28;19999;-42
2023/07/04 03:42:12;;;;;;;;;;;13.70;99.90;;;;;;5032773;28;19932;-42
2023/07/04 03:44:40;;;;;;;;;;;13.70;99.90;;;;;;5032278;28;19971;-43
2023/07/04 03:47:07;;;;;;;;;;;13.70;99.90;;;;;;5007576;28;19925;-43
2023/07/04 03:49:34;;;;;;;;;;;13.70;99.90;;;;;;5032831;28;19929;-43
2023/07/04 03:52:00;;;;;;;;;;;13.60;99.90;;;;;;5032351;28;19932;-43
2023/07/04 03:54:27;;;;;;;;;;;13.60;99.90;;;;;;5032859;28;19925;-43
2023/07/04 03:56:54;;;;;;;;;;;13.60;99.90;;;;;;5014714;28;19968;-43
2023/07/04 03:59:20;;;;;;;;;;;13.60;99.90;;;;;;5014030;28;19932;-42
2023/07/04 04:01:48;;;;;;;;;;;13.60;99.90;;;;;;5012303;28;19980;-42
2023/07/04 04:04:15;;;;;;;;;;;13.60;99.90;;;;;;5029494;28;19929;-42
2023/07/04 04:06:42;;;;;;;;;;;13.60;99.90;;;;;;5004479;28;19974;-43
2023/07/04 04:09:08;;;;;;;;;;;13.60;99.90;;;;;;5012692;28;19925;-43
2023/07/04 04:11:54;;;;;;;;;;;13.60;99.90;;;;;;5031725;28;20296;-42
2023/07/04 04:14:20;;;;;;;;;;;13.60;99.90;;;;;;5031814;28;20300;-44
2023/07/04 04:16:49;;;;;;;;;;;13.60;99.90;;;;;;5014920;28;20373;-42
2023/07/04 04:19:16;;;;;;;;;;;13.60;99.90;;;;;;5014002;28;19925;-43
2023/07/04 04:21:42;;;;;;;;;;;13.60;99.90;;;;;;5011082;28;19968;-43
2023/07/04 04:24:09;;;;;;;;;;;13.60;99.90;;;;;;5032180;28;19926;-42
2023/07/04 04:26:38;;;;;;;;;;;13.60;99.90;;;;;;5014353;28;19968;-44
2023/07/04 04:29:04;;;;;;;;;;;13.60;99.90;;;;;;5031755;28;19936;-43
2023/07/04 04:31:31;;;;;;;;;;;13.60;99.90;;;;;;5031960;28;20348;-43
2023/07/04 04:33:59;;;;;;;;;;;13.60;99.90;;;;;;5029275;28;20015;-43
2023/07/04 04:36:26;;;;;;;;;;;13.60;99.90;;;;;;5014286;28;19972;-43
2023/07/04 04:38:53;;;;;;;;;;;13.60;99.90;;;;;;5017518;28;20408;-43
2023/07/04 04:41:19;;;;;;;;;;;13.70;99.90;;;;;;5007054;28;19925;-42
2023/07/04 04:43:50;;;;;;;;;;;13.70;99.90;;;;;;5010587;28;19925;-42
2023/07/04 04:46:16;;;;;;;;;;;13.70;99.90;;;;;;5030919;28;19964;-43
2023/07/04 04:48:43;;;;;;;;;;;13.70;99.90;;;;;;5012049;28;20436;-43
2023/07/04 04:51:12;;;;;;;;;;;13.80;99.90;;;;;;5031008;28;20304;-43
2023/07/04 04:53:40;;;;;;;;;;;13.80;99.90;;;;;;5013190;28;20430;-43
2023/07/04 04:56:06;;;;;;;;;;;13.80;99.90;;;;;;5031206;28;19925;-43
2023/07/04 04:58:33;;;;;;;;;;;13.90;99.90;;;;;;5011865;28;19969;-42
2023/07/04 05:01:06;;;;;;;;;;;13.90;99.90;;;;;;5012372;28;19932;-43
2023/07/04 05:03:33;;;;;;;;;;;13.90;99.90;;;;;;5031427;28;19929;-43
2023/07/04 05:06:00;;;;;;;;;;;13.90;99.90;;;;;;5031553;28;19925;-43
2023/07/04 05:08:28;;;;;;;;;;;14.00;99.90;;;;;;5013981;28;20373;-43
2023/07/04 05:10:59;;;;;;;;;;;14.00;99.90;;;;;;5013013;28;20350;-43
2023/07/04 05:13:25;;;;;;;;;;;14.00;99.90;;;;;;5029809;28;19929;-42
2023/07/04 05:15:58;;;;;;;;;;;14.00;99.90;;;;;;5031066;28;19926;-43
2023/07/04 05:18:25;;;;;;;;;;;14.00;99.90;;;;;;5042835;28;20404;-42
2023/07/04 05:20:59;;;;;;;;;;;14.00;99.90;;;;;;5013955;28;19929;-43
2023/07/04 05:23:25;;;;;;;;;;;14.10;99.90;;;;;;5013854;28;19986;-43
2023/07/04 05:26:00;;;;;;;;;;;14.10;99.90;;;;;;5012804;28;19933;-42
2023/07/04 05:28:26;;;;;;;;;;;14.10;99.90;;;;;;5013475;28;20385;-43
2023/07/04 05:30:57;;;;;;;;;;;14.10;99.90;;;;;;5023816;28;19972;-42
2023/07/04 05:33:23;;;;;;;;;;;14.20;99.90;;;;;;5024410;28;19936;-42
2023/07/04 05:35:50;;;;;;;;;;;14.20;99.90;;;;;;5014426;28;19964;-42
2023/07/04 05:38:17;;;;;;;;;;;14.20;99.90;;;;;;5029995;28;20017;-42
2023/07/04 05:40:44;;;;;;;;;;;14.30;99.90;;;;;;5028257;28;19925;-43
2023/07/04 05:43:12;;;;;;;;;;;14.30;99.90;;;;;;5029729;28;19971;-43
2023/07/04 05:45:39;;;;;;;;;;;14.30;99.90;;;;;;5010335;28;19925;-43
2023/07/04 05:48:06;;;;;;;;;;;14.40;99.90;;;;;;5019232;28;19952;-43
2023/07/04 05:50:33;;;;;;;;;;;14.40;99.90;;;;;;5029113;28;20356;-42
2023/07/04 05:53:00;;;;;;;;;;;14.50;99.90;;;;;;5029300;28;19925;-43
2023/07/04 05:55:26;;;;;;;;;;;14.50;99.90;;;;;;5011797;28;20361;-44
2023/07/04 05:57:53;;;;;;;;;;;14.50;99.90;;;;;;5009726;28;19929;-43
2023/07/04 06:00:21;;;;;;;;;;;14.60;99.90;;;;;;5011206;28;19929;-43
2023/07/04 06:02:49;;;;;;;;;;;14.60;99.90;;;;;;5024026;28;19971;-42
2023/07/04 06:05:15;;;;;;;;;;;14.60;99.90;;;;;;5027974;28;19936;-44
2023/07/04 06:07:42;;;;;;;;;;;14.70;99.90;;;;;;5026553;28;19933;-43
2023/07/04 06:10:09;;;;;;;;;;;14.80;99.90;;;;;;5044739;28;19983;-43
2023/07/04 06:12:36;;;;;;;;;;;15.00;99.90;;;;;;5016065;28;19928;-43
2023/07/04 06:15:02;;;;;;;;;;;15.10;99.90;;;;;;5033467;28;19936;-43
2023/07/04 06:17:30;;;;;;;;;;;15.20;99.90;;;;;;5015081;28;19937;-43
2023/07/04 06:19:57;;;;;;;;;;;15.20;99.90;;;;;;5011728;28;20022;-43
2023/07/04 06:22:24;;;;;;;;;;;15.30;99.90;;;;;;5032820;28;19980;-43
2023/07/04 06:24:51;;;;;;;;;;;15.30;99.90;;;;;;5016164;28;20015;-44
2023/07/04 06:27:19;;;;;;;;;;;15.40;99.90;;;;;;5014813;28;19932;-42
2023/07/04 06:29:47;;;;;;;;;;;15.40;99.90;;;;;;5032857;28;19951;-43
2023/07/04 06:32:14;;;;;;;;;;;15.50;99.90;;;;;;5031503;28;20339;-43
2023/07/04 06:34:42;;;;;;;;;;;15.50;99.90;;;;;;5009840;28;19925;-43
2023/07/04 06:37:09;;;;;;;;;;;15.60;99.90;;;;;;5030346;28;20334;-43
2023/07/04 06:39:36;;;;;;;;;;;15.60;99.90;;;;;;5031127;28;20320;-42
2023/07/04 06:42:02;;;;;;;;;;;15.60;99.90;;;;;;5006989;28;19979;-43
2023/07/04 06:44:29;;;;;;;;;;;15.70;99.90;;;;;;5021759;28;20070;-43
2023/07/04 06:46:56;;;;;;;;;;;15.70;99.90;;;;;;5014884;28;20362;-43
2023/07/04 06:49:23;;;;;;;;;;;15.80;99.90;;;;;;5015202;28;19925;-42
2023/07/04 06:51:51;;;;;;;;;;;15.80;99.90;;;;;;5014551;28;20110;-42
2023/07/04 06:54:18;;;;;;;;;;;15.80;99.90;;;;;;5031130;28;19948;-43
2023/07/04 06:56:44;;;;;;;;;;;15.90;99.90;;;;;;5032417;28;19971;-43
2023/07/04 06:59:11;;;;;;;;;;;16.00;99.90;;;;;;5031695;28;19994;-43
2023/07/04 07:01:39;;;;;;;;;;;16.00;99.90;;;;;;5029418;28;19925;-42
2023/07/04 07:04:06;;;;;;;;;;;16.10;99.90;;;;;;5044689;28;20014;-43
2023/07/04 07:06:32;;;;;;;;;;;16.20;99.90;;;;;;5028906;28;20008;-43
2023/07/04 07:09:03;;;;;;;;;;;16.20;99.90;;;;;;5028116;28;20288;-42
2023/07/04 07:11:30;;;;;;;;;;;16.30;99.90;;;;;;5026139;28;19970;-42
2023/07/04 07:13:57;;;;;;;;;;;16.40;99.90;;;;;;5030573;28;19925;-43
2023/07/04 07:16:24;;;;;;;;;;;16.40;99.90;;;;;;5006344;28;19925;-42
2023/07/04 07:18:51;;;;;;;;;;;16.50;99.90;;;;;;5018836;28;19929;-43
2023/07/04 07:21:20;;;;;;;;;;;16.50;99.90;;;;;;5042354;28;19960;-42
2023/07/04 07:23:47;;;;;;;;;;;16.60;99.90;;;;;;5011297;28;19987;-43
2023/07/04 07:26:16;;;;;;;;;;;16.60;99.90;;;;;;5028557;28;19968;-42
2023/07/04 07:28:42;;;;;;;;;;;16.60;99.90;;;;;;5024820;28;19987;-43
2023/07/04 07:31:10;;;;;;;;;;;16.70;99.90;;;;;;5021718;28;20294;-44
2023/07/04 07:33:37;;;;;;;;;;;16.70;99.90;;;;;;5043450;28;19929;-43
2023/07/04 07:36:11;;;;;;;;;;;16.80;99.90;;;;;;5013441;28;19929;-43
2023/07/04 07:38:38;;;;;;;;;;;16.80;99.90;;;;;;5014352;28;19928;-43
2023/07/04 07:41:05;;;;;;;;;;;16.90;99.90;;;;;;5031182;28;19926;-43
2023/07/04 07:43:33;;;;;;;;;;;17.00;99.90;;;;;;5019653;28;19925;-43
2023/07/04 07:45:59;;;;;;;;;;;17.00;99.90;;;;;;5029369;28;20466;-42
2023/07/04 07:48:28;;;;;;;;;;;17.10;99.90;;;;;;5023384;28;20320;-43
2023/07/04 07:50:54;;;;;;;;;;;17.20;99.90;;;;;;5028550;28;19985;-42
2023/07/04 07:53:21;;;;;;;;;;;17.30;99.90;;;;;;5030718;28;19925;-43
2023/07/04 07:55:48;;;;;;;;;;;17.50;99.90;;;;;;5030240;28;19992;-42
2023/07/04 07:58:15;;;;;;;;;;;17.70;99.90;;;;;;5031282;28;20354;-43
2023/07/04 08:00:43;;;;;;;;;;;17.70;99.90;;;;;;5029859;28;19971;-43
2023/07/04 08:03:09;;;;;;;;;;;17.80;99.90;;;;;;5013513;28;19955;-43
2023/07/04 08:05:38;;;;;;;;;;;17.90;99.90;;;;;;5013682;28;20305;-42
2023/07/04 08:08:04;;;;;;;;;;;17.90;99.90;;;;;;5031741;28;19925;-44
2023/07/04 08:10:35;;;;;;;;;;;18.00;99.90;;;;;;5030075;28;20292;-43
2023/07/04 08:13:01;;;;;;;;;;;18.10;99.90;;;;;;5032001;28;20372;-43
2023/07/04 08:15:28;;;;;;;;;;;18.10;99.90;;;;;;5028909;28;19940;-44
2023/07/04 08:17:56;;;;;;;;;;;18.20;99.90;;;;;;5026170;28;19948;-43
2023/07/04 08:20:23;;;;;;;;;;;18.20;99.90;;;;;;4997983;28;19964;-43
2023/07/04 08:22:49;;;;;;;;;;;18.10;99.90;;;;;;5030829;28;19925;-44
2023/07/04 08:25:16;;;;;;;;;;;18.20;99.90;;;;;;5022903;28;19936;-43
2023/07/04 08:27:43;;;;;;;;;;;18.10;99.90;;;;;;5031043;28;19925;-42
2023/07/04 08:30:10;;;;;;;;;;;18.10;99.90;;;;;;5030371;28;19925;-43
2023/07/04 08:32:36;;;;;;;;;;;18.20;99.90;;;;;;5030756;28;19933;-43
2023/07/04 08:35:05;;;;;;;;;;;18.20;99.90;;;;;;5029331;28;20663;-44
2023/07/04 08:37:31;;;;;;;;;;;18.20;99.90;;;;;;5029789;28;19970;-43
2023/07/04 08:39:58;;;;;;;;;;;18.20;99.90;;;;;;5030963;28;19956;-43
2023/07/04 08:42:25;;;;;;;;;;;18.20;99.90;;;;;;5030586;28;19929;-43
2023/07/04 08:44:52;;;;;;;;;;;18.20;99.90;;;;;;5013397;28;20417;-43
2023/07/04 08:47:20;;;;;;;;;;;18.20;99.90;;;;;;5013400;28;19971;-43
2023/07/04 08:49:47;;;;;;;;;;;18.10;99.90;;;;;;5031220;28;20052;-44
2023/07/04 08:52:16;;;;;;;;;;;18.10;99.90;;;;;;5029679;28;19925;-44
2023/07/04 08:54:43;;;;;;;;;;;18.10;99.90;;;;;;5012628;28;20372;-44
2023/07/04 08:57:23;;;;;;;;;;;18.20;99.90;;;;;;5030896;28;19932;-44
2023/07/04 08:59:51;;;;;;;;;;;18.20;99.90;;;;;;5030706;28;19925;-43
2023/07/04 09:02:24;;;;;;;;;;;18.30;99.90;;;;;;5030557;28;20186;-44
2023/07/04 09:04:53;;;;;;;;;;;18.40;99.90;;;;;;5030324;28;20296;-44
2023/07/04 09:07:22;;;;;;;;;;;18.40;99.90;;;;;;5030516;28;19932;-43
2023/07/04 09:09:50;;;;;;;;;;;18.50;99.90;;;;;;5012925;28;19925;-43
2023/07/04 09:12:16;;;;;;;;;;;18.50;99.90;;;;;;5028201;28;20388;-44
2023/07/04 09:14:45;;;;;;;;;;;18.50;99.90;;;;;;5030502;28;19964;-42
2023/07/04 09:17:14;;;;;;;;;;;18.50;99.90;;;;;;5013477;28;19929;-43
2023/07/04 09:19:41;;;;;;;;;;;18.50;99.90;;;;;;5010912;28;19929;-44
2023/07/04 09:22:07;;;;;;;;;;;18.50;99.90;;;;;;4998748;28;19972;-43
2023/07/04 09:24:35;;;;;;;;;;;18.50;99.90;;;;;;5028048;28;19925;-43
2023/07/04 09:27:02;;;;;;;;;;;18.50;99.90;;;;;;5029350;28;20630;-44
2023/07/04 09:29:29;;;;;;;;;;;18.50;99.90;;;;;;5012961;28;20340;-44
2023/07/04 09:31:56;;;;;;;;;;;18.50;99.90;;;;;;5030075;28;19929;-43
2023/07/04 09:34:23;;;;;;;;;;;18.50;99.90;;;;;;5030671;28;20431;-42
2023/07/04 09:36:51;;;;;;;;;;;18.40;99.90;;;;;;5030438;28;19925;-43
2023/07/04 09:39:18;;;;;;;;;;;18.50;99.90;;;;;;5030595;28;19975;-42
2023/07/04 09:41:55;;;;;;;;;;;18.60;99.90;;;;;;5029455;28;19929;-43
2023/07/04 09:44:26;;;;;;;;;;;18.60;99.90;;;;;;5012415;28;19971;-43
2023/07/04 09:46:53;;;;;;;;;;;18.70;99.90;;;;;;5032946;28;20026;-43
2023/07/04 09:49:21;;;;;;;;;;;18.80;99.90;;;;;;5016910;28;19932;-42
2023/07/04 09:51:56;;;;;;;;;;;18.90;99.90;;;;;;5034119;28;20026;-42
2023/07/04 09:54:23;;;;;;;;;;;18.90;99.90;;;;;;5015835;28;19925;-43
2023/07/04 09:56:51;;;;;;;;;;;18.90;99.90;;;;;;5016435;28;19925;-43
2023/07/04 09:59:18;;;;;;;;;;;18.90;99.90;;;;;;5016845;28;20262;-43
2023/07/04 10:01:45;;;;;;;;;;;19.10;99.90;;;;;;5016516;28;19976;-43
2023/07/04 10:04:13;;;;;;;;;;;19.40;99.90;;;;;;5033658;28;19960;-43
2023/07/04 10:06:39;;;;;;;;;;;19.80;99.90;;;;;;5048075;28;19932;-43
2023/07/04 10:09:14;;;;;;;;;;;20.00;99.90;;;;;;5032683;28;20366;-43
2023/07/04 10:11:40;;;;;;;;;;;20.30;99.90;;;;;;5033647;28;20372;-43
2023/07/04 10:14:09;;;;;;;;;;;20.30;99.90;;;;;;5028297;28;19925;-42
2023/07/04 10:16:36;;;;;;;;;;;20.40;99.90;;;;;;5032634;28;19936;-43
2023/07/04 10:19:03;;;;;;;;;;;20.50;99.50;;;;;;5016455;28;19925;-45
2023/07/04 10:21:30;;;;;;;;;;;20.60;99.80;;;;;;5049489;28;20395;-44
2023/07/04 10:23:59;;;;;;;;;;;20.50;99.90;;;;;;5009555;28;20439;-43
2023/07/04 10:26:25;;;;;;;;;;;20.50;99.90;;;;;;5033482;28;19929;-44
2023/07/04 10:28:52;;;;;;;;;;;20.70;99.90;;;;;;5033800;28;19979;-43
2023/07/04 10:31:21;;;;;;;;;;;20.90;98.80;;;;;;5015663;28;19933;-44
2023/07/04 10:33:50;;;;;;;;;;;20.90;99.60;;;;;;5033325;28;19972;-44
2023/07/04 10:36:18;;;;;;;;;;;21.10;98.60;;;;;;5015141;28;20353;-44
2023/07/04 10:38:46;;;;;;;;;;;21.20;98.50;;;;;;5032730;28;19925;-44
2023/07/04 10:41:16;;;;;;;;;;;21.30;97.20;;;;;;5015653;28;19925;-44
2023/07/04 10:43:44;;;;;;;;;;;21.50;96.80;;;;;;5007945;28;19925;-44
2023/07/04 10:46:11;;;;;;;;;;;21.70;95.40;;;;;;5032980;28;19975;-43
2023/07/04 10:48:39;;;;;;;;;;;21.60;95.20;;;;;;5015588;28;19968;-44
2023/07/04 10:51:07;;;;;;;;;;;21.40;94.70;;;;;;5047403;28;19929;-43
2023/07/04 10:53:34;;;;;;;;;;;21.30;94.80;;;;;;5032975;28;19929;-43
2023/07/04 10:56:03;;;;;;;;;;;21.10;96.00;;;;;;5033221;28;19933;-43
2023/07/04 10:58:32;;;;;;;;;;;21.20;95.60;;;;;;5031693;28;19987;-44
2023/07/04 11:00:59;;;;;;;;;;;21.30;95.00;;;;;;5015413;28;19929;-43
2023/07/04 11:03:27;;;;;;;;;;;21.20;93.70;;;;;;5032494;28;19932;-43
2023/07/04 11:05:55;;;;;;;;;;;21.10;93.70;;;;;;5032679;28;20377;-43
2023/07/04 11:08:22;;;;;;;;;;;20.90;94.20;;;;;;5031899;28;20553;-44
2023/07/04 11:10:50;;;;;;;;;;;20.80;94.90;;;;;;5032330;28;20241;-43
2023/07/04 11:13:17;;;;;;;;;;;20.70;95.20;;;;;;5032439;28;19929;-42
2023/07/04 11:15:44;;;;;;;;;;;20.70;94.20;;;;;;5032818;28;20046;-42
2023/07/04 11:18:15;;;;;;;;;;;20.70;94.30;;;;;;5032704;28;19929;-42
2023/07/04 11:20:51;;;;;;;;;;;20.80;94.60;;;;;;5031643;28;19925;-43
2023/07/04 11:23:20;;;;;;;;;;;20.80;94.60;;;;;;5015164;28;19932;-43
2023/07/04 11:25:54;;;;;;;;;;;21.00;94.30;;;;;;5014958;28;20320;-42
2023/07/04 11:28:26;;;;;;;;;;;21.30;93.10;;;;;;5014476;28;19925;-42
2023/07/04 11:30:53;;;;;;;;;;;21.60;93.20;;;;;;5031349;28;20456;-43
2023/07/04 11:33:36;;;;;;;;;;;21.70;91.70;;;;;;5047290;28;20015;-43
2023/07/04 11:36:03;;;;;;;;;;;21.70;91.30;;;;;;5031969;28;20311;-43
2023/07/04 11:38:31;;;;;;;;;;;21.90;92.90;;;;;;5032225;28;19925;-43
2023/07/04 11:40:58;;;;;;;;;;;22.20;92.00;;;;;;5031962;28;19926;-43
2023/07/04 11:43:27;;;;;;;;;;;22.50;91.50;;;;;;5031170;28;19929;-44
2023/07/04 11:45:55;;;;;;;;;;;22.70;91.20;;;;;;5014429;28;19968;-44
2023/07/04 11:48:22;;;;;;;;;;;22.90;90.00;;;;;;5030805;28;19972;-42
2023/07/04 11:50:49;;;;;;;;;;;23.00;90.40;;;;;;5031903;28;19953;-43
2023/07/04 11:53:16;;;;;;;;;;;23.10;90.00;;;;;;5031739;28;19925;-44
2023/07/04 11:55:44;;;;;;;;;;;23.10;88.50;;;;;;5031844;28;19926;-43
2023/07/04 11:58:20;;;;;;;;;;;22.90;84.70;;;;;;5028223;28;19972;-43
2023/07/04 12:01:02;;;;;;;;;;;22.60;85.20;;;;;;5011984;28;19925;-43
2023/07/04 12:03:49;;;;;;;;;;;22.50;88.90;;;;;;5045865;28;20299;-44
2023/07/04 12:06:35;;;;;;;;;;;22.60;89.50;;;;;;5031821;28;19929;-44
2023/07/04 12:09:02;;;;;;;;;;;22.70;90.10;;;;;;5031148;28;20009;-44
2023/07/04 12:11:43;;;;;;;;;;;22.90;88.50;;;;;;5031192;28;20312;-44
2023/07/04 12:14:10;;;;;;;;;;;23.00;84.80;;;;;;5031565;28;19929;-45
2023/07/04 12:16:37;;;;;;;;;;;23.10;86.40;;;;;;5030551;28;19941;-43
2023/07/04 12:19:04;;;;;;;;;;;23.20;83.40;;;;;;5047041;28;19926;-45
2023/07/04 12:21:32;;;;;;;;;;;23.30;82.80;;;;;;5031175;28;19929;-43
2023/07/04 12:24:01;;;;;;;;;;;23.20;83.50;;;;;;5012548;28;19929;-42
2023/07/04 12:26:30;;;;;;;;;;;23.30;87.80;;;;;;5013506;28;20373;-45
2023/07/04 12:28:58;;;;;;;;;;;23.40;87.40;;;;;;5031336;28;19971;-44
2023/07/04 12:31:25;;;;;;;;;;;23.40;86.80;;;;;;5013226;28;19971;-43
2023/07/04 12:33:52;;;;;;;;;;;23.40;86.30;;;;;;5028603;28;19971;-45
2023/07/04 12:36:19;;;;;;;;;;;23.50;86.50;;;;;;5032023;28;20313;-44
2023/07/04 12:38:46;;;;;;;;;;;23.60;85.40;;;;;;5032551;28;19932;-44
2023/07/04 12:41:15;;;;;;;;;;;23.70;84.70;;;;;;5014413;28;19947;-43
2023/07/04 12:43:41;;;;;;;;;;;23.80;82.40;;;;;;5013663;28;19979;-44
2023/07/04 12:46:10;;;;;;;;;;;23.90;80.80;;;;;;5014974;28;19929;-44
2023/07/04 12:48:36;;;;;;;;;;;23.90;82.90;;;;;;5032257;28;19929;-43
2023/07/04 12:51:06;;;;;;;;;;;24.10;79.00;;;;;;5019714;28;20014;-44
2023/07/04 12:53:33;;;;;;;;;;;24.20;79.60;;;;;;5019891;28;20016;-44
2023/07/04 12:55:59;;;;;;;;;;;24.30;81.30;;;;;;5031508;28;20347;-44
2023/07/04 12:58:26;;;;;;;;;;;24.40;81.10;;;;;;5014605;28;19929;-44
2023/07/04 13:01:02;;;;;;;;;;;24.50;80.00;;;;;;5013743;28;20023;-44
2023/07/04 13:03:30;;;;;;;;;;;24.50;80.60;;;;;;5031754;28;20008;-44
2023/07/04 13:05:57;;;;;;;;;;;24.60;79.50;;;;;;5012297;28;20372;-43
2023/07/04 13:08:24;;;;;;;;;;;24.70;79.00;;;;;;5028326;28;20297;-43
2023/07/04 13:10:52;;;;;;;;;;;24.60;78.30;;;;;;5031910;28;19925;-44
2023/07/04 13:13:33;;;;;;;;;;;24.40;79.90;;;;;;5014660;28;20057;-44
2023/07/04 13:16:10;;;;;;;;;;;24.40;80.70;;;;;;4994477;28;20381;-45
2023/07/04 13:18:42;;;;;;;;;;;24.40;78.70;;;;;;5047338;28;19929;-44
2023/07/04 13:21:09;;;;;;;;;;;24.40;80.00;;;;;;5010470;28;20157;-44
2023/07/04 13:23:36;;;;;;;;;;;24.50;80.20;;;;;;5029936;28;19987;-44
2023/07/04 13:26:02;;;;;;;;;;;24.70;76.20;;;;;;5030401;28;20282;-45
2023/07/04 13:28:30;;;;;;;;;;;24.70;74.70;;;;;;5013368;28;19968;-44
2023/07/04 13:31:11;;;;;;;;;;;24.70;78.80;;;;;;5043088;28;19953;-45
2023/07/04 13:33:38;;;;;;;;;;;24.80;74.10;;;;;;5051734;28;19972;-44
2023/07/04 13:36:07;;;;;;;;;;;24.80;76.40;;;;;;5033114;28;20334;-43
2023/07/04 13:38:34;;;;;;;;;;;25.00;75.40;;;;;;5045104;28;19929;-43
2023/07/04 13:41:03;;;;;;;;;;;25.00;75.60;;;;;;5012238;28;20440;-43
2023/07/04 13:43:30;;;;;;;;;;;25.10;74.50;;;;;;5030568;28;19926;-44
2023/07/04 13:45:57;;;;;;;;;;;25.00;73.60;;;;;;5047115;28;19929;-44
2023/07/04 13:48:24;;;;;;;;;;;25.00;73.70;;;;;;5045940;28;19979;-43
2023/07/04 13:50:51;;;;;;;;;;;25.00;74.10;;;;;;5066960;28;20339;-43
2023/07/04 13:53:19;;;;;;;;;;;25.00;75.80;;;;;;5033364;28;19975;-43
2023/07/04 13:55:45;;;;;;;;;;;24.90;74.40;;;;;;5033557;28;20051;-44
2023/07/04 13:58:12;;;;;;;;;;;24.90;75.90;;;;;;5026640;28;19932;-43
2023/07/04 14:00:39;;;;;;;;;;;24.90;75.80;;;;;;5018201;28;19925;-43
2023/07/04 14:03:06;;;;;;;;;;;24.90;75.00;;;;;;5031000;28;19944;-44
2023/07/04 14:05:34;;;;;;;;;;;24.70;75.50;;;;;;5030746;28;20043;-44
2023/07/04 14:08:00;;;;;;;;;;;24.50;73.70;;;;;;5033351;28;19925;-43
2023/07/04 14:10:29;;;;;;;;;;;24.20;73.60;;;;;;5046602;28;20336;-44
2023/07/04 14:12:55;;;;;;;;;;;24.10;73.60;;;;;;5002117;28;19929;-43
2023/07/04 14:15:23;;;;;;;;;;;24.00;73.30;;;;;;5030484;28;19925;-45
2023/07/04 14:17:50;;;;;;;;;;;23.90;75.30;;;;;;5031550;28;19983;-43
2023/07/04 14:20:17;;;;;;;;;;;23.80;75.00;;;;;;5031259;28;19948;-44